Time;durP1;ratioP1;P1;durP2;ratioP2;P2;SDS_P1;SDS_P2;PMS_P1;PMS_P2;Temp;Humidity;BMP_temperature;BMP_pressure;BME280_temperature;BME280_humidity;BME280_pressure;Samples;Min_cycle;Max_cycle;Signal;HPM_P1;HPM_P2
2022/10/03 00:02:25;;;;;;;1.73;1.13;;;;;;;;;;5034409;28;20727;-69
2022/10/03 00:05:20;;;;;;;1.70;1.10;;;;;;;;;;5035113;28;20420;-69
2022/10/03 00:08:00;;;;;;;1.15;1.08;;;;;;;;;;5035090;28;20059;-68
2022/10/03 00:10:38;;;;;;;1.10;1.10;;;;;;;;;;5034168;28;20489;-69
2022/10/03 00:13:24;;;;;;;1.88;1.10;;;;;;;;;;5039361;28;20036;-69
2022/10/03 00:16:17;;;;;;;1.35;1.17;;;;;;;;;;5054826;28;20044;-69
2022/10/03 00:19:07;;;;;;;0.98;0.98;;;;;;;;;;5055138;28;20442;-69
2022/10/03 00:21:49;;;;;;;1.25;1.10;;;;;;;;;;5055088;28;20377;-68
2022/10/03 00:24:59;;;;;;;1.08;1.00;;;;;;;;;;5054772;28;20033;-68
2022/10/03 00:27:43;;;;;;;1.67;1.20;;;;;;;;;;5054648;28;20126;-69
2022/10/03 00:30:22;;;;;;;1.20;1.10;;;;;;;;;;5054565;28;20534;-69
2022/10/03 00:33:39;;;;;;;1.08;1.00;;;;;;;;;;5054893;28;20112;-69
2022/10/03 00:36:13;;;;;;;1.00;0.93;;;;;;;;;;5042076;28;20052;-68
2022/10/03 00:38:52;;;;;;;1.08;1.00;;;;;;;;;;5054546;28;20461;-68
2022/10/03 00:41:39;;;;;;;1.20;1.10;;;;;;;;;;5054201;28;20057;-69
2022/10/03 00:44:16;;;;;;;1.70;0.93;;;;;;;;;;5054607;28;20037;-68
2022/10/03 00:47:00;;;;;;;1.10;1.10;;;;;;;;;;5054670;28;20127;-68
2022/10/03 00:49:37;;;;;;;1.10;1.10;;;;;;;;;;5054236;28;20096;-68
2022/10/03 00:52:33;;;;;;;0.90;0.90;;;;;;;;;;5054524;28;20112;-68
2022/10/03 00:55:10;;;;;;;1.40;1.30;;;;;;;;;;5054451;28;20086;-68
2022/10/03 00:58:04;;;;;;;1.48;1.05;;;;;;;;;;5054068;28;20022;-68
2022/10/03 01:00:31;;;;;;;1.27;1.17;;;;;;;;;;5054210;28;20028;-68
2022/10/03 01:02:57;;;;;;;1.50;1.20;;;;;;;;;;5054191;28;20064;-67
2022/10/03 01:05:37;;;;;;;1.02;1.00;;;;;;;;;;5053933;28;20061;-67
2022/10/03 01:08:36;;;;;;;1.05;1.00;;;;;;;;;;5053939;28;20500;-69
2022/10/03 01:11:07;;;;;;;1.23;1.10;;;;;;;;;;5053546;28;20037;-69
2022/10/03 01:13:54;;;;;;;1.20;1.10;;;;;;;;;;5038720;28;20108;-68
2022/10/03 01:16:28;;;;;;;1.88;1.00;;;;;;;;;;5033770;28;20030;-68
2022/10/03 01:19:18;;;;;;;1.98;0.90;;;;;;;;;;5033939;28;20056;-68
2022/10/03 01:22:09;;;;;;;0.90;0.90;;;;;;;;;;5033658;28;20117;-68
2022/10/03 01:24:59;;;;;;;1.20;1.00;;;;;;;;;;5030507;28;20042;-68
2022/10/03 01:27:30;;;;;;;1.80;1.10;;;;;;;;;;5033482;28;20096;-68
2022/10/03 01:30:22;;;;;;;1.00;1.00;;;;;;;;;;5032958;28;20112;-67
2022/10/03 01:33:09;;;;;;;1.17;1.00;;;;;;;;;;5033503;28;20028;-69
2022/10/03 01:36:18;;;;;;;1.00;1.00;;;;;;;;;;5033661;28;20029;-68
2022/10/03 01:38:50;;;;;;;0.90;0.90;;;;;;;;;;5033314;28;20044;-68
2022/10/03 01:41:36;;;;;;;1.13;1.00;;;;;;;;;;5033196;28;20086;-68
2022/10/03 01:44:08;;;;;;;1.60;0.95;;;;;;;;;;5048153;28;20048;-68
2022/10/03 01:47:26;;;;;;;1.48;0.90;;;;;;;;;;5053446;28;20021;-68
2022/10/03 01:50:00;;;;;;;1.08;0.90;;;;;;;;;;5044066;28;20033;-67
2022/10/03 01:52:48;;;;;;;1.30;1.17;;;;;;;;;;5053355;28;20443;-66
2022/10/03 01:55:36;;;;;;;0.90;0.90;;;;;;;;;;5052976;28;20059;-68
2022/10/03 01:58:10;;;;;;;1.25;1.00;;;;;;;;;;5052897;28;20055;-67
2022/10/03 02:00:59;;;;;;;1.13;1.00;;;;;;;;;;5052921;28;20028;-68
2022/10/03 02:03:37;;;;;;;1.15;0.98;;;;;;;;;;5052778;28;20040;-68
2022/10/03 02:06:49;;;;;;;1.10;1.00;;;;;;;;;;5052862;28;20032;-69
2022/10/03 02:09:17;;;;;;;0.93;0.90;;;;;;;;;;5036979;28;20041;-68
2022/10/03 02:11:49;;;;;;;1.00;0.90;;;;;;;;;;5053055;28;20127;-67
2022/10/03 02:14:32;;;;;;;1.35;1.10;;;;;;;;;;5052940;28;20105;-68
2022/10/03 02:17:13;;;;;;;1.00;1.00;;;;;;;;;;5052990;28;20097;-68
2022/10/03 02:19:57;;;;;;;1.58;1.05;;;;;;;;;;5052592;28;20017;-69
2022/10/03 02:22:31;;;;;;;3.53;0.90;;;;;;;;;;5052766;28;20029;-68
2022/10/03 02:25:25;;;;;;;0.80;0.80;;;;;;;;;;5052470;28;20051;-68
2022/10/03 02:28:30;;;;;;;1.05;0.80;;;;;;;;;;5052447;28;20476;-68
2022/10/03 02:31:37;;;;;;;1.27;1.17;;;;;;;;;;5041323;28;20075;-69
2022/10/03 02:34:39;;;;;;;1.10;1.00;;;;;;;;;;5044907;28;20064;-69
2022/10/03 02:37:13;;;;;;;1.05;1.05;;;;;;;;;;5052593;28;20045;-68
2022/10/03 02:39:53;;;;;;;0.90;0.90;;;;;;;;;;5052363;28;20116;-68
2022/10/03 02:42:35;;;;;;;1.30;1.20;;;;;;;;;;5044978;28;20050;-68
2022/10/03 02:45:24;;;;;;;0.90;0.90;;;;;;;;;;5032359;28;20112;-68
2022/10/03 02:47:49;;;;;;;1.10;1.00;;;;;;;;;;5029093;28;20033;-68
2022/10/03 02:50:33;;;;;;;1.00;1.00;;;;;;;;;;5032255;28;20056;-67
2022/10/03 02:53:05;;;;;;;0.77;0.77;;;;;;;;;;5032302;28;20030;-68
2022/10/03 02:55:39;;;;;;;0.90;0.90;;;;;;;;;;5032160;28;20021;-68
2022/10/03 02:58:09;;;;;;;0.95;0.95;;;;;;;;;;5032503;28;20030;-68
2022/10/03 03:00:53;;;;;;;0.88;0.88;;;;;;;;;;5032280;28;20022;-68
2022/10/03 03:03:37;;;;;;;1.50;1.00;;;;;;;;;;5032104;28;20029;-67
2022/10/03 03:06:06;;;;;;;1.10;1.10;;;;;;;;;;5032058;28;20035;-68
2022/10/03 03:08:51;;;;;;;1.00;1.00;;;;;;;;;;5032085;28;20018;-68
2022/10/03 03:11:37;;;;;;;1.20;1.10;;;;;;;;;;5032141;28;20112;-66
2022/10/03 03:14:48;;;;;;;1.02;0.90;;;;;;;;;;5012647;28;20041;-67
2022/10/03 03:17:29;;;;;;;0.80;0.80;;;;;;;;;;5012658;28;20026;-68
2022/10/03 03:20:19;;;;;;;1.13;1.08;;;;;;;;;;5012448;28;20053;-68
2022/10/03 03:23:24;;;;;;;1.30;1.20;;;;;;;;;;5012606;28;20397;-69
2022/10/03 03:26:28;;;;;;;1.13;0.90;;;;;;;;;;5011723;28;20413;-68
2022/10/03 03:29:26;;;;;;;1.10;1.10;;;;;;;;;;5011877;28;20525;-69
2022/10/03 03:32:27;;;;;;;1.00;1.00;;;;;;;;;;5012252;28;20037;-69
2022/10/03 03:35:23;;;;;;;1.92;0.93;;;;;;;;;;5002105;28;20113;-68
2022/10/03 03:38:06;;;;;;;1.27;0.90;;;;;;;;;;5010913;28;20524;-68
2022/10/03 03:40:49;;;;;;;1.10;1.00;;;;;;;;;;5012276;28;20050;-69
2022/10/03 03:44:05;;;;;;;1.23;0.90;;;;;;;;;;5012204;28;20085;-67
2022/10/03 03:46:59;;;;;;;0.80;0.80;;;;;;;;;;5012225;28;20045;-66
2022/10/03 03:49:30;;;;;;;0.90;0.90;;;;;;;;;;5012252;28;20037;-69
2022/10/03 03:52:13;;;;;;;1.13;1.02;;;;;;;;;;5012978;28;20493;-69
2022/10/03 03:55:00;;;;;;;1.27;1.17;;;;;;;;;;5015620;28;20021;-68
2022/10/03 03:58:13;;;;;;;1.00;0.90;;;;;;;;;;5015538;28;20030;-67
2022/10/03 04:00:46;;;;;;;1.42;1.10;;;;;;;;;;5013142;28;20034;-68
2022/10/03 04:03:26;;;;;;;0.90;0.90;;;;;;;;;;5015118;28;20033;-67
2022/10/03 04:06:02;;;;;;;1.10;1.00;;;;;;;;;;5015442;28;20025;-68
2022/10/03 04:09:02;;;;;;;1.27;1.00;;;;;;;;;;5015256;28;20256;-68
2022/10/03 04:11:36;;;;;;;0.90;0.90;;;;;;;;;;5032122;28;20128;-68
2022/10/03 04:14:35;;;;;;;0.98;0.88;;;;;;;;;;5054909;28;20028;-67
2022/10/03 04:20:17;;;;;;;1.10;1.00;;;;;;;;;;5054709;28;20421;-68
2022/10/03 04:22:59;;;;;;;1.05;0.90;;;;;;;;;;5054860;28;20161;-67
2022/10/03 04:25:45;;;;;;;1.25;1.10;;;;;;;;;;5054722;28;20560;-68
2022/10/03 04:28:33;;;;;;;1.55;1.13;;;;;;;;;;5054547;28;20163;-67
2022/10/03 04:31:13;;;;;;;1.20;1.05;;;;;;;;;;5054427;28;20028;-68
2022/10/03 04:34:04;;;;;;;1.33;0.82;;;;;;;;;;5054527;28;20117;-67
2022/10/03 04:36:49;;;;;;;0.80;0.80;;;;;;;;;;5054514;28;20048;-68
2022/10/03 04:39:43;;;;;;;1.08;0.98;;;;;;;;;;5054731;28;20021;-67
2022/10/03 04:42:20;;;;;;;1.23;1.10;;;;;;;;;;5038349;28;20041;-68
2022/10/03 04:45:00;;;;;;;1.27;1.02;;;;;;;;;;5034508;28;20557;-68
2022/10/03 04:47:58;;;;;;;1.33;0.93;;;;;;;;;;5034639;28;20076;-68
2022/10/03 04:50:41;;;;;;;0.88;0.88;;;;;;;;;;5023796;28;20603;-68
2022/10/03 04:53:33;;;;;;;0.90;0.90;;;;;;;;;;5034308;28;20524;-68
2022/10/03 04:56:15;;;;;;;1.77;0.85;;;;;;;;;;5034163;28;20076;-68
2022/10/03 04:59:27;;;;;;;0.85;0.85;;;;;;;;;;5034380;28;20077;-68
2022/10/03 05:02:17;;;;;;;1.35;0.85;;;;;;;;;;5027166;28;20041;-69
2022/10/03 05:05:18;;;;;;;1.77;1.00;;;;;;;;;;5034206;28;20091;-67
2022/10/03 05:07:59;;;;;;;1.25;0.82;;;;;;;;;;5025469;28;20071;-67
2022/10/03 05:10:34;;;;;;;1.13;1.10;;;;;;;;;;5034172;28;20029;-66
2022/10/03 05:13:18;;;;;;;1.50;1.00;;;;;;;;;;5032526;28;20033;-67
2022/10/03 05:15:44;;;;;;;1.02;1.00;;;;;;;;;;5034131;28;20025;-68
2022/10/03 05:18:31;;;;;;;0.77;0.77;;;;;;;;;;5033933;28;20036;-67
2022/10/03 05:21:20;;;;;;;1.05;0.98;;;;;;;;;;5033893;28;20048;-68
2022/10/03 05:23:51;;;;;;;1.02;1.00;;;;;;;;;;5033545;28;20025;-68
2022/10/03 05:26:37;;;;;;;1.73;0.98;;;;;;;;;;5033868;28;20025;-68
2022/10/03 05:29:14;;;;;;;1.10;1.00;;;;;;;;;;5029423;28;20040;-67
2022/10/03 05:32:02;;;;;;;1.95;1.10;;;;;;;;;;5033434;28;20100;-68
2022/10/03 05:35:16;;;;;;;3.95;1.30;;;;;;;;;;5033466;28;20026;-67
2022/10/03 05:38:06;;;;;;;0.80;0.80;;;;;;;;;;5031113;28;20033;-68
2022/10/03 05:40:35;;;;;;;1.23;1.13;;;;;;;;;;5042143;28;20064;-68
2022/10/03 05:43:10;;;;;;;1.73;1.13;;;;;;;;;;5053018;28;20029;-67
2022/10/03 05:46:01;;;;;;;1.27;1.10;;;;;;;;;;5054286;28;20028;-67
2022/10/03 05:48:44;;;;;;;1.55;1.08;;;;;;;;;;5053788;28;20568;-67
2022/10/03 05:51:51;;;;;;;3.50;1.15;;;;;;;;;;5053736;28;20036;-66
2022/10/03 05:54:46;;;;;;;0.90;0.90;;;;;;;;;;5053650;28;20022;-66
2022/10/03 05:57:14;;;;;;;1.33;0.98;;;;;;;;;;5053623;28;20416;-67
2022/10/03 06:00:06;;;;;;;0.82;0.82;;;;;;;;;;5053388;28;20037;-67
2022/10/03 06:02:52;;;;;;;1.35;1.00;;;;;;;;;;5052844;28;20028;-67
2022/10/03 06:05:26;;;;;;;1.17;0.95;;;;;;;;;;5053203;28;20029;-67
2022/10/03 06:08:24;;;;;;;1.67;0.90;;;;;;;;;;5053239;28;20025;-67
2022/10/03 06:11:02;;;;;;;1.05;1.00;;;;;;;;;;5027374;28;20050;-67
2022/10/03 06:13:37;;;;;;;1.98;1.10;;;;;;;;;;5032725;28;20030;-67
2022/10/03 06:16:17;;;;;;;1.60;1.17;;;;;;;;;;5032195;28;20536;-67
2022/10/03 06:19:15;;;;;;;2.33;1.10;;;;;;;;;;5032606;28;20496;-67
2022/10/03 06:22:37;;;;;;;2.95;1.00;;;;;;;;;;5028547;28;20087;-67
2022/10/03 06:25:12;;;;;;;2.80;1.15;;;;;;;;;;5032510;28;20528;-67
2022/10/03 06:28:02;;;;;;;1.73;1.00;;;;;;;;;;5032540;28;20036;-67
2022/10/03 06:30:46;;;;;;;;;;;;;;;;;;5032894;28;20117;-68
2022/10/03 06:33:36;;;;;;;1.08;1.00;;;;;;;;;;5032231;28;19948;-68
2022/10/03 06:36:25;;;;;;;1.67;1.10;;;;;;;;;;5032712;28;20022;-67
2022/10/03 06:39:08;;;;;;;1.58;1.30;;;;;;;;;;5032363;28;20428;-67
2022/10/03 06:41:46;;;;;;;1.30;1.20;;;;;;;;;;5032156;28;20057;-67
2022/10/03 06:44:48;;;;;;;1.67;1.40;;;;;;;;;;5031421;28;20041;-67
2022/10/03 06:47:34;;;;;;;1.38;1.30;;;;;;;;;;5026827;28;20443;-66
2022/10/03 06:50:26;;;;;;;1.27;1.10;;;;;;;;;;5027223;28;20021;-66
2022/10/03 06:53:17;;;;;;;1.40;1.30;;;;;;;;;;5023928;28;20502;-66
2022/10/03 06:55:53;;;;;;;1.30;1.20;;;;;;;;;;5051192;28;20060;-66
2022/10/03 06:58:46;;;;;;;2.55;1.35;;;;;;;;;;5029399;28;20030;-68
2022/10/03 07:01:11;;;;;;;3.60;1.42;;;;;;;;;;5027359;28;20838;-67
2022/10/03 07:04:14;;;;;;;2.22;1.17;;;;;;;;;;5029810;28;20029;-67
2022/10/03 07:07:04;;;;;;;1.65;1.40;;;;;;;;;;5048923;28;20055;-68
2022/10/03 07:09:45;;;;;;;1.75;1.55;;;;;;;;;;5042743;28;20497;-67
2022/10/03 07:12:25;;;;;;;2.45;1.33;;;;;;;;;;5037063;28;20025;-67
2022/10/03 07:15:30;;;;;;;3.38;1.58;;;;;;;;;;5035534;28;20072;-68
2022/10/03 07:18:23;;;;;;;2.10;1.60;;;;;;;;;;5031329;28;20121;-67
2022/10/03 07:21:24;;;;;;;2.13;1.27;;;;;;;;;;5024621;28;20033;-69
2022/10/03 07:24:08;;;;;;;1.90;1.50;;;;;;;;;;5040419;28;20495;-67
2022/10/03 07:26:56;;;;;;;2.28;1.50;;;;;;;;;;5039164;28;20033;-70
2022/10/03 07:29:34;;;;;;;3.25;1.38;;;;;;;;;;5044310;28;20048;-70
2022/10/03 07:32:11;;;;;;;1.60;1.50;;;;;;;;;;5044800;28;20098;-68
2022/10/03 07:34:42;;;;;;;3.22;1.40;;;;;;;;;;5043373;28;20087;-67
2022/10/03 07:40:30;;;;;;;1.30;1.20;;;;;;;;;;5032645;28;20039;-67
2022/10/03 07:43:21;;;;;;;1.63;1.50;;;;;;;;;;5039489;28;20036;-69
2022/10/03 07:46:11;;;;;;;1.90;1.52;;;;;;;;;;5043093;28;20048;-67
2022/10/03 07:49:06;;;;;;;2.40;1.50;;;;;;;;;;5041190;28;20076;-67
2022/10/03 07:51:39;;;;;;;1.58;1.35;;;;;;;;;;5033418;28;20129;-68
2022/10/03 07:54:55;;;;;;;2.20;1.50;;;;;;;;;;5032518;28;20033;-67
2022/10/03 07:57:26;;;;;;;3.25;1.50;;;;;;;;;;5008840;28;20827;-68
2022/10/03 08:00:23;;;;;;;1.92;1.40;;;;;;;;;;5032238;28;20037;-70
2022/10/03 08:03:07;;;;;;;1.60;1.50;;;;;;;;;;5031574;28;20037;-69
2022/10/03 08:06:04;;;;;;;2.10;1.50;;;;;;;;;;5013962;28;20068;-67
2022/10/03 08:08:52;;;;;;;2.75;1.55;;;;;;;;;;5030075;28;20057;-67
2022/10/03 08:11:42;;;;;;;2.20;1.55;;;;;;;;;;5029365;28;20030;-69
2022/10/03 08:14:24;;;;;;;2.90;1.50;;;;;;;;;;5031667;28;20045;-70
2022/10/03 08:17:12;;;;;;;3.05;1.50;;;;;;;;;;5033347;28;20263;-68
2022/10/03 08:20:04;;;;;;;3.72;1.63;;;;;;;;;;5033542;28;20033;-67
2022/10/03 08:23:09;;;;;;;3.97;1.65;;;;;;;;;;5033587;28;20048;-67
2022/10/03 08:26:01;;;;;;;2.60;1.40;;;;;;;;;;5030109;28;20029;-68
2022/10/03 08:28:42;;;;;;;1.70;1.60;;;;;;;;;;5032557;28;20029;-69
2022/10/03 08:31:26;;;;;;;1.67;1.48;;;;;;;;;;5033283;28;20034;-69
2022/10/03 08:34:06;;;;;;;1.90;1.70;;;;;;;;;;5033028;28;20105;-67
2022/10/03 08:37:10;;;;;;;2.33;1.50;;;;;;;;;;5033193;28;20025;-67
2022/10/03 08:40:23;;;;;;;3.67;1.80;;;;;;;;;;5030719;28;20029;-67
2022/10/03 08:43:13;;;;;;;3.78;1.73;;;;;;;;;;5032748;28;20076;-67
2022/10/03 08:45:50;;;;;;;3.80;1.63;;;;;;;;;;5032788;28;20477;-67
2022/10/03 08:48:56;;;;;;;4.72;1.90;;;;;;;;;;5033050;28;20048;-68
2022/10/03 08:51:40;;;;;;;1.70;1.60;;;;;;;;;;5032928;28;20029;-67
2022/10/03 08:54:30;;;;;;;3.95;1.70;;;;;;;;;;5032738;28;20025;-68
2022/10/03 08:57:23;;;;;;;2.17;1.70;;;;;;;;;;5032804;28;20025;-68
2022/10/03 09:00:13;;;;;;;2.50;1.80;;;;;;;;;;5013627;28;20033;-69
2022/10/03 09:03:00;;;;;;;3.72;1.70;;;;;;;;;;5032420;28;20109;-69
2022/10/03 09:05:50;;;;;;;2.33;1.73;;;;;;;;;;5032435;28;20041;-70
2022/10/03 09:08:28;;;;;;;3.63;2.08;;;;;;;;;;5032493;28;20025;-70
2022/10/03 09:11:11;;;;;;;2.95;1.90;;;;;;;;;;5032344;28;20034;-67
2022/10/03 09:14:10;;;;;;;3.22;2.10;;;;;;;;;;5032361;28;20095;-68
2022/10/03 09:17:19;;;;;;;2.38;1.83;;;;;;;;;;5032230;28;20022;-67
2022/10/03 09:20:09;;;;;;;4.18;1.92;;;;;;;;;;5029383;28;20103;-66
2022/10/03 09:22:59;;;;;;;3.95;2.08;;;;;;;;;;5022304;28;20096;-67
2022/10/03 09:25:54;;;;;;;3.92;2.05;;;;;;;;;;5012275;28;20030;-66
2022/10/03 09:28:47;;;;;;;4.90;1.83;;;;;;;;;;5012196;28;20076;-67
2022/10/03 09:31:43;;;;;;;2.92;1.90;;;;;;;;;;5012501;28;20089;-66
2022/10/03 09:34:15;;;;;;;3.38;2.13;;;;;;;;;;5012199;28;20089;-70
2022/10/03 09:36:59;;;;;;;3.55;1.95;;;;;;;;;;5012185;28;20069;-69
2022/10/03 09:39:27;;;;;;;4.63;2.13;;;;;;;;;;5012081;28;20136;-69
2022/10/03 09:42:05;;;;;;;5.13;2.15;;;;;;;;;;5011712;28;20133;-66
2022/10/03 09:45:01;;;;;;;3.43;1.93;;;;;;;;;;5012317;28;20464;-68
2022/10/03 09:47:50;;;;;;;4.25;2.35;;;;;;;;;;5011849;28;20058;-68
2022/10/03 09:50:52;;;;;;;2.25;1.70;;;;;;;;;;5011287;28;20754;-68
2022/10/03 09:53:58;;;;;;;5.65;2.20;;;;;;;;;;4999859;28;20126;-66
2022/10/03 09:57:01;;;;;;;4.90;2.10;;;;;;;;;;5012087;28;20721;-66
2022/10/03 09:59:57;;;;;;;2.17;1.80;;;;;;;;;;5011783;28;20026;-65
2022/10/03 10:02:34;;;;;;;4.00;2.08;;;;;;;;;;5011868;28;20187;-68
2022/10/03 10:05:38;;;;;;;2.28;1.70;;;;;;;;;;5011535;28;20037;-68
2022/10/03 10:08:30;;;;;;;3.08;1.98;;;;;;;;;;5011522;28;20030;-69
2022/10/03 10:11:25;;;;;;;2.38;1.90;;;;;;;;;;5011147;28;20498;-68
2022/10/03 10:14:13;;;;;;;3.78;1.95;;;;;;;;;;5011640;28;20662;-68
2022/10/03 10:17:02;;;;;;;4.13;1.77;;;;;;;;;;5011693;28;20383;-68
2022/10/03 10:19:44;;;;;;;2.88;1.85;;;;;;;;;;5011577;28;20045;-67
2022/10/03 10:22:18;;;;;;;2.60;2.03;;;;;;;;;;5011581;28;20042;-68
2022/10/03 10:25:02;;;;;;;3.63;2.05;;;;;;;;;;5011029;28;20075;-68
2022/10/03 10:27:48;;;;;;;6.80;1.90;;;;;;;;;;5011186;28;20109;-67
2022/10/03 10:30:49;;;;;;;2.70;1.95;;;;;;;;;;5005925;28;20380;-66
2022/10/03 10:33:42;;;;;;;5.20;2.05;;;;;;;;;;5050839;28;20384;-67
2022/10/03 10:36:11;;;;;;;3.25;1.73;;;;;;;;;;5050716;28;20028;-67
2022/10/03 10:38:55;;;;;;;2.78;1.85;;;;;;;;;;5050748;28;20033;-66
2022/10/03 10:41:51;;;;;;;4.47;2.20;;;;;;;;;;5043964;28;20041;-68
2022/10/03 10:44:41;;;;;;;3.13;1.80;;;;;;;;;;5025610;28;20053;-68
2022/10/03 10:47:09;;;;;;;2.00;1.70;;;;;;;;;;5010870;28;20437;-70
2022/10/03 10:49:56;;;;;;;8.32;2.13;;;;;;;;;;5011055;28;20429;-67
2022/10/03 10:52:46;;;;;;;5.25;1.90;;;;;;;;;;5011253;28;20060;-67
2022/10/03 10:55:31;;;;;;;;;;;;;;;;;;5011441;28;20449;-67
2022/10/03 10:58:42;;;;;;;2.55;1.92;;;;;;;;;;5010872;28;19913;-68
2022/10/03 11:01:46;;;;;;;2.50;1.70;;;;;;;;;;5012198;28;20034;-68
2022/10/03 11:04:14;;;;;;;3.05;1.77;;;;;;;;;;5014816;28;20037;-67
2022/10/03 11:07:10;;;;;;;3.92;1.83;;;;;;;;;;5015061;28;20386;-68
2022/10/03 11:09:36;;;;;;;5.28;1.80;;;;;;;;;;5014922;28;20053;-67
2022/10/03 11:12:39;;;;;;;4.80;1.65;;;;;;;;;;5015056;28;20476;-68
2022/10/03 11:15:42;;;;;;;3.65;1.90;;;;;;;;;;5014730;28;20026;-70
2022/10/03 11:18:16;;;;;;;4.07;1.80;;;;;;;;;;5006785;28;20127;-67
2022/10/03 11:21:28;;;;;;;3.75;1.80;;;;;;;;;;5014613;28;20029;-70
2022/10/03 11:24:21;;;;;;;2.53;1.60;;;;;;;;;;5012485;28;20038;-72
2022/10/03 11:27:24;;;;;;;2.95;1.88;;;;;;;;;;5014429;28;20057;-71
2022/10/03 11:30:06;;;;;;;3.47;1.95;;;;;;;;;;5033293;28;20033;-69
2022/10/03 11:32:50;;;;;;;2.72;1.67;;;;;;;;;;5035075;28;20477;-71
2022/10/03 11:35:40;;;;;;;4.00;2.00;;;;;;;;;;5037677;28;20377;-70
2022/10/03 11:38:15;;;;;;;4.70;1.60;;;;;;;;;;5040283;28;20038;-73
2022/10/03 11:40:40;;;;;;;4.97;1.80;;;;;;;;;;5036812;28;20049;-69
2022/10/03 11:43:14;;;;;;;2.80;1.80;;;;;;;;;;5036905;28;20485;-74
2022/10/03 11:45:50;;;;;;;3.63;2.10;;;;;;;;;;5025108;28;20029;-69
2022/10/03 11:48:40;;;;;;;5.93;1.95;;;;;;;;;;5026420;28;20042;-73
2022/10/03 11:51:17;;;;;;;2.55;1.90;;;;;;;;;;5026646;28;20026;-71
2022/10/03 11:54:10;;;;;;;3.97;1.83;;;;;;;;;;5025202;28;20033;-72
2022/10/03 11:56:46;;;;;;;2.10;1.70;;;;;;;;;;5024175;28;20017;-71
2022/10/03 11:59:33;;;;;;;4.45;1.83;;;;;;;;;;5023437;28;20018;-74
2022/10/03 12:02:12;;;;;;;3.88;1.83;;;;;;;;;;5025709;28;20030;-74
2022/10/03 12:04:46;;;;;;;3.17;1.83;;;;;;;;;;5018300;28;20355;-71
2022/10/03 12:11:06;;;;;;;4.28;1.85;;;;;;;;;;5015371;28;20125;-73
2022/10/03 12:13:40;;;;;;;4.57;1.90;;;;;;;;;;5019089;28;20065;-73
2022/10/03 12:16:19;;;;;;;2.60;1.83;;;;;;;;;;5023146;28;20382;-74
2022/10/03 12:18:45;;;;;;;2.65;1.67;;;;;;;;;;5023701;28;20018;-74
2022/10/03 12:21:17;;;;;;;2.72;1.77;;;;;;;;;;5023146;28;20025;-71
2022/10/03 12:24:10;;;;;;;2.78;1.80;;;;;;;;;;5022586;28;20029;-74
2022/10/03 12:26:59;;;;;;;2.90;1.67;;;;;;;;;;5023406;28;20033;-73
2022/10/03 12:29:29;;;;;;;3.45;1.77;;;;;;;;;;5025177;28;20057;-72
2022/10/03 12:32:16;;;;;;;2.58;1.60;;;;;;;;;;5024282;28;20093;-74
2022/10/03 12:35:13;;;;;;;3.25;1.58;;;;;;;;;;5019215;28;20030;-70
2022/10/03 12:37:57;;;;;;;1.92;1.60;;;;;;;;;;5017832;28;20045;-74
2022/10/03 12:40:32;;;;;;;1.95;1.58;;;;;;;;;;5023607;28;20033;-73
2022/10/03 12:43:16;;;;;;;4.00;2.00;;;;;;;;;;5025321;28;20045;-73
2022/10/03 12:45:53;;;;;;;2.13;1.77;;;;;;;;;;5024153;28;20542;-70
2022/10/03 12:48:47;;;;;;;2.80;1.88;;;;;;;;;;5023918;28;20053;-72
2022/10/03 12:51:20;;;;;;;3.08;1.63;;;;;;;;;;5024569;28;20045;-69
2022/10/03 12:53:46;;;;;;;2.85;1.90;;;;;;;;;;5023214;28;20029;-72
2022/10/03 12:56:38;;;;;;;3.63;1.70;;;;;;;;;;5020235;28;20041;-70
2022/10/03 12:59:16;;;;;;;6.57;2.05;;;;;;;;;;5023361;28;20033;-70
2022/10/03 13:02:14;;;;;;;1.98;1.70;;;;;;;;;;5022611;28;20043;-69
2022/10/03 13:05:10;;;;;;;1.98;1.58;;;;;;;;;;5019272;28;20038;-71
2022/10/03 13:07:56;;;;;;;3.13;1.70;;;;;;;;;;5022782;28;20029;-73
2022/10/03 13:10:28;;;;;;;2.67;1.75;;;;;;;;;;5022234;28;20033;-72
2022/10/03 13:13:15;;;;;;;2.55;1.63;;;;;;;;;;5023460;28;20034;-72
2022/10/03 13:15:56;;;;;;;2.53;1.90;;;;;;;;;;5021555;28;20054;-72
2022/10/03 13:18:46;;;;;;;2.92;1.80;;;;;;;;;;5023520;28;20424;-72
2022/10/03 13:21:41;;;;;;;5.82;2.22;;;;;;;;;;5023603;28;20060;-73
2022/10/03 13:24:25;;;;;;;2.95;1.88;;;;;;;;;;5020842;28;20042;-72
2022/10/03 13:27:03;;;;;;;1.90;1.40;;;;;;;;;;5021770;28;20074;-73
2022/10/03 13:29:37;;;;;;;2.75;1.90;;;;;;;;;;5020472;28;20025;-74
2022/10/03 13:32:16;;;;;;;2.33;1.80;;;;;;;;;;5023172;28;20097;-73
2022/10/03 13:38:32;;;;;;;5.57;1.77;;;;;;;;;;5023235;28;20040;-74
2022/10/03 13:41:16;;;;;;;2.63;1.92;;;;;;;;;;5021422;28;20057;-74
2022/10/03 13:43:49;;;;;;;4.90;1.60;;;;;;;;;;5024195;28;20033;-74
2022/10/03 13:46:20;;;;;;;7.63;1.58;;;;;;;;;;5023787;28;20026;-74
2022/10/03 13:48:56;;;;;;;3.33;1.80;;;;;;;;;;5023801;28;20034;-75
2022/10/03 13:51:30;;;;;;;4.72;1.80;;;;;;;;;;5024714;28;20022;-70
2022/10/03 13:54:01;;;;;;;1.70;1.60;;;;;;;;;;5024316;28;20022;-72
2022/10/03 13:56:56;;;;;;;2.35;1.92;;;;;;;;;;5021929;28;20041;-73
2022/10/03 13:59:31;;;;;;;5.90;1.85;;;;;;;;;;5021101;28;20425;-74
2022/10/03 14:02:14;;;;;;;4.10;2.00;;;;;;;;;;5024526;28;20022;-72
2022/10/03 14:05:01;;;;;;;3.17;1.80;;;;;;;;;;5025371;28;20026;-73
2022/10/03 14:07:58;;;;;;;2.30;1.70;;;;;;;;;;5057039;28;20026;-74
2022/10/03 14:10:48;;;;;;;2.35;1.85;;;;;;;;;;5023711;28;20092;-75
2022/10/03 14:13:22;;;;;;;3.22;2.05;;;;;;;;;;5022125;28;20032;-71
2022/10/03 14:16:21;;;;;;;5.65;1.90;;;;;;;;;;5022350;28;20032;-74
2022/10/03 14:19:11;;;;;;;1.60;1.50;;;;;;;;;;5023916;28;20055;-74
2022/10/03 14:21:52;;;;;;;4.10;1.70;;;;;;;;;;5022188;28;20041;-72
2022/10/03 14:24:45;;;;;;;2.50;1.75;;;;;;;;;;5056810;28;20092;-74
2022/10/03 14:27:40;;;;;;;2.10;1.60;;;;;;;;;;5025467;28;20126;-75
2022/10/03 14:30:43;;;;;;;6.28;1.70;;;;;;;;;;5023571;28;20030;-74
2022/10/03 14:33:30;;;;;;;2.53;1.70;;;;;;;;;;5024279;28;20076;-73
2022/10/03 14:36:09;;;;;;;2.33;1.73;;;;;;;;;;5023313;28;20026;-69
2022/10/03 14:39:20;;;;;;;1.50;1.40;;;;;;;;;;5020213;28;20041;-71
2022/10/03 14:41:55;;;;;;;2.22;1.73;;;;;;;;;;5023071;28;20104;-73
2022/10/03 14:44:38;;;;;;;3.05;1.60;;;;;;;;;;5022254;28;20029;-73
2022/10/03 14:47:10;;;;;;;4.10;1.73;;;;;;;;;;5024538;28;20018;-72
2022/10/03 14:49:38;;;;;;;2.05;1.70;;;;;;;;;;5024658;28;20482;-70
2022/10/03 14:52:25;;;;;;;3.03;1.90;;;;;;;;;;5023876;28;20030;-73
2022/10/03 14:54:55;;;;;;;2.90;1.52;;;;;;;;;;5024983;28;20030;-73
2022/10/03 14:57:35;;;;;;;2.70;1.55;;;;;;;;;;5021378;28;20065;-68
2022/10/03 15:00:01;;;;;;;1.65;1.55;;;;;;;;;;5022599;28;20104;-71
2022/10/03 15:02:32;;;;;;;3.25;1.75;;;;;;;;;;5020896;28;20037;-75
2022/10/03 15:05:10;;;;;;;2.90;1.80;;;;;;;;;;5020439;28;20104;-73
2022/10/03 15:07:42;;;;;;;3.08;1.70;;;;;;;;;;5016330;28;20358;-73
2022/10/03 15:10:13;;;;;;;2.63;1.73;;;;;;;;;;5020770;28;20057;-72
2022/10/03 15:12:45;;;;;;;1.75;1.65;;;;;;;;;;5021618;28;20428;-73
2022/10/03 15:15:14;;;;;;;1.85;1.52;;;;;;;;;;5022496;28;20505;-70
2022/10/03 15:17:49;;;;;;;3.55;1.85;;;;;;;;;;5021794;28;20057;-72
2022/10/03 15:20:29;;;;;;;1.77;1.60;;;;;;;;;;5018637;28;20109;-72
2022/10/03 15:23:00;;;;;;;2.40;2.17;;;;;;;;;;5018790;28;20164;-74
2022/10/03 15:25:51;;;;;;;5.18;1.90;;;;;;;;;;5015884;28;20041;-74
2022/10/03 15:28:25;;;;;;;2.10;1.70;;;;;;;;;;5014797;28;20110;-72
2022/10/03 15:30:54;;;;;;;3.15;1.80;;;;;;;;;;5015152;28;20049;-73
2022/10/03 15:33:33;;;;;;;2.25;1.58;;;;;;;;;;5014374;28;20288;-73
2022/10/03 15:36:11;;;;;;;2.92;1.50;;;;;;;;;;5013665;28;20080;-73
2022/10/03 15:38:39;;;;;;;2.33;1.65;;;;;;;;;;5013350;28;20037;-74
2022/10/03 15:41:36;;;;;;;2.28;1.48;;;;;;;;;;5012649;28;20117;-73
2022/10/03 15:44:52;;;;;;;2.22;1.70;;;;;;;;;;5011205;28;20103;-72
2022/10/03 15:47:23;;;;;;;2.70;1.88;;;;;;;;;;5028446;28;20057;-72
2022/10/03 15:50:00;;;;;;;4.93;1.65;;;;;;;;;;5017333;28;20044;-72
2022/10/03 15:52:33;;;;;;;3.17;1.80;;;;;;;;;;5014894;28;20026;-71
2022/10/03 15:55:04;;;;;;;2.78;1.67;;;;;;;;;;5015003;28;20058;-73
2022/10/03 15:57:33;;;;;;;2.28;1.70;;;;;;;;;;5014500;28;20037;-73
2022/10/03 16:00:00;;;;;;;2.75;2.08;;;;;;;;;;5013906;28;20064;-72
2022/10/03 16:02:33;;;;;;;2.53;1.83;;;;;;;;;;5013742;28;20037;-71
2022/10/03 16:05:04;;;;;;;2.25;1.92;;;;;;;;;;5014187;28;20044;-72
2022/10/03 16:08:14;;;;;;;2.65;1.70;;;;;;;;;;5013733;28;20026;-73
2022/10/03 16:10:47;;;;;;;2.40;1.65;;;;;;;;;;5011235;28;20183;-71
2022/10/03 16:13:15;;;;;;;2.50;1.58;;;;;;;;;;5011219;28;20092;-70
2022/10/03 16:15:51;;;;;;;2.70;1.70;;;;;;;;;;5012470;28;20042;-71
2022/10/03 16:18:38;;;;;;;1.60;1.50;;;;;;;;;;5013955;28;20064;-73
2022/10/03 16:21:05;;;;;;;2.83;1.67;;;;;;;;;;5013717;28;20528;-67
2022/10/03 16:23:39;;;;;;;3.50;1.90;;;;;;;;;;5014140;28;20065;-68
2022/10/03 16:26:12;;;;;;;3.42;1.80;;;;;;;;;;5013568;28;20046;-71
2022/10/03 16:29:00;;;;;;;2.25;1.90;;;;;;;;;;5013455;28;20034;-68
2022/10/03 16:31:53;;;;;;;2.88;1.90;;;;;;;;;;5013488;28;20022;-70
2022/10/03 16:34:24;;;;;;;2.33;1.80;;;;;;;;;;5013897;28;20376;-70
2022/10/03 16:36:50;;;;;;;1.95;1.70;;;;;;;;;;5013332;28;20537;-70
2022/10/03 16:39:35;;;;;;;2.00;1.63;;;;;;;;;;5013182;28;20028;-66
2022/10/03 16:42:11;;;;;;;2.42;1.70;;;;;;;;;;5013074;28;20041;-69
2022/10/03 16:44:49;;;;;;;2.42;1.52;;;;;;;;;;5013431;28;20034;-69